Accueil
METAR-TAF:

METAR-TAF

Aéroports :

Aéroport de Dortmund

Dortmund, Allemagne

latitude: 51-31N, longitude: 007-37E, altitude: 127 m

Observation

Le bulletin a été fait il y a 27 minutes, à 11:50 UTC
Vent 4 kt de nord/nord-est, variant entre ouest/nord-ouest et est
Température 24°C
Humidité 38%
Pression 1019 hPa
Visibilité 10 km ou plus
pas de nuages en-dessous de 1500 mètres et pas de cumulonimbus.

METAR: EDLW 181150Z 02004KT 290V100 CAVOK 24/09 Q1019

Heure: 14:17 (12:17 UTC)

Prévision

Le bulletin a été fait il y a 1 heure et 17 minutes, à 11:00 UTC
Prévision valable du 18 à 12 UTC au 19 à 12 UTC
Vent 5 kt de nord/nord-ouest
Visibilité 10 km ou plus
pas de nuages en-dessous de 1500 mètres et pas de cumulonimbus.
Evoluant progressivement
du 18 à 18 UTC au 18 à 21 UTC
Vent 3 kt de direction variable

TAF: EDLW 181100Z 1812/1912 33005KT CAVOK BECMG 1818/1821 VRB03KT

Observations et prévisions météorologiques de plus de 4000 aéroports (messages METAR et TAF).

Les stations disponibles sont représentées par des disques jaunes et rouges sur la carte.

Passer la souris dessus pour voir le nom de la station.

Cliquer dessus pour voir les observations et prévisions météorologiques.

Pour changer de carte: cliquez sur les boutons verts avec une croix noire pour zoomer, sur le bouton vert avec un tiret pour effectuer un zoom arrière, ou sur les flèches vertes pour les cartes adjacentes.


METAR-TAF: